Denizli, Turkey

1:10 PM EEST on July 29, 2016 (GMT +0300)
Cardak Air Base | | Change Station

Elev 2785 ft 37.79 °N, 29.70 °E | Updated 20 minutes ago

Scattered Clouds
Scattered Clouds
91 °F
Feels Like 89 °F
N
5
Wind Variable Wind from East

Today
High -- | Low -- °F
--% Chance of Precip.
Yesterday
High -- | Low -- °F
Precip. -- in
Pressure 29.83 in
Visibility 6.2 miles
Clouds Scattered Clouds 3500 ft
Heat Index 89 °F
Dew Point 55 °F
Humidity 29%
Rainfall 0.00 in
Snow Depth Not available.
6:04 AM 8:14 PM
Waning Crescent, 23% visible
METAR LTAY 290950Z 08004KT 020V180 9999 SCT035 33/13 Q1010
Pressure 29.83 in
Visibility 6.2 miles
Clouds Scattered Clouds 3500 ft
Heat Index 89 °F
Dew Point 55 °F
Humidity 29%
Rainfall 0.00 in
Snow Depth Not available.
6:04 AM 8:14 PM
Waning Crescent, 23% visible
METAR LTAY 290950Z 08004KT 020V180 9999 SCT035 33/13 Q1010

10-Day Weather Forecast

×

Almanac

Astronomy

Jul. 29, 2016 Rise Set
Actual Time
Civil Twilight
Nautical Twilight
Astronomical Twilight
Moon
Length of Visible Light
Length of Day
Tomorrow will be .
, % of the Moon is Illuminated

Today's Extremes

Country Highs Country Lows

Community

WunderPhotos

Upload Photos

1,928,310 photos uploaded!

WunderBlog® & News

Nearby

Air Quality

  Air Quality AQ Index Pollutant
Not available.

Snow Depth

Station Depth Elevation

Earthquake Activity

City Distance Mag. Time & Date
Minimum magnitude displayed is 2.5.

Coastal Water Temperatures

Place Temperature

Stations

Nearby Weather Stations

Station Location Temp. Windchill Dew Point Humidity Wind Precip. Elev Updated Type